KARV

Details ICAO KARV (ARV)
Name Lakeland Noble F Lee Mem Fld
Region United States
Timezone America/Chicago (UTC-5.0)
Plans Departing 4
Arriving 2
Stats Elevation 1,630 ft / 497 m (AMSL)
Location 45.927337° -89.730536°
Runways 2
Magnetic Variation 2.912° W
Sunrise 2018-05-21 10:21:58 UTC / 2018-05-21 05:21:58 Local
Sunset 2018-05-22 01:31:57 UTC / 2018-05-21 20:31:57 Local
Advertisement - Login to hide

Runways

ID Width Length Bearing (true) Bearing (mag) Surface Threshold Offset Overrun Length
10 75 ft / 23 m 3,593 ft / 1,095 m 100.56° 103.47° Asphalt 0 ft / 0 m 0 ft / 0 m
18 100 ft / 30 m 5,153 ft / 1,571 m 178.93° 181.84° Asphalt 0 ft / 0 m 0 ft / 0 m
28 75 ft / 23 m 3,593 ft / 1,095 m 280.57° 283.48° Asphalt 0 ft / 0 m 0 ft / 0 m
36 100 ft / 30 m 5,153 ft / 1,571 m 358.93° 1.84° Asphalt 0 ft / 0 m 0 ft / 0 m

Approach Navaids

Runway Type Ident Frequency Range Bearing (true) Bearing (mag) Slope Elevation
36 Localiser IDOF 111.70 MHz 18 nm / 33 km 358.93° 1.85° - 1,630 ft / 497 m (AMSL)

Map

Weather


0- 5 10 15 20 25 30 35+ Temperature / ° C

Clouds and Precipitation
Forecast for 2018-05-22 00:00 UTC. Updated 6 hours ago

Ground ~20,000 ft ~40,000 ft Winds

METAR

KARV 220455Z AUTO 00000KT 10SM SCT036 OVC075 14/11 A3003 RMK AO2 T01380105

TAF

Not found

Frequencies

Recorded 121.12 MHz AWOS 3
Unicom 122.70 MHz CTAF/UNICOM
Warning: Do not use this data for real-world aviation or navigation. No guarantee of current accuracy is given.